Time;durP1;ratioP1;P1;durP2;ratioP2;P2;SDS_P1;SDS_P2;PMS_P1;PMS_P2;Temp;Humidity;BMP_temperature;BMP_pressure;BME280_temperature;BME280_humidity;BME280_pressure;Samples;Min_cycle;Max_cycle;Signal;HPM_P1;HPM_P2
2021/07/27 00:00:30;;;;;;;5.87;4.33;;;18.70;99.90;;;;;;5015315;28;20699;-61
2021/07/27 00:02:56;;;;;;;6.43;4.43;;;18.80;99.90;;;;;;5014989;28;20203;-62
2021/07/27 00:05:21;;;;;;;4.83;3.97;;;18.90;99.90;;;;;;5015705;28;20183;-60
2021/07/27 00:07:47;;;;;;;3.77;3.40;;;19.00;99.90;;;;;;5015499;28;20181;-62
2021/07/27 00:10:12;;;;;;;3.70;3.10;;;18.90;99.90;;;;;;5014769;28;20212;-61
2021/07/27 00:12:38;;;;;;;3.30;3.00;;;18.70;99.90;;;;;;5014777;28;20203;-62
2021/07/27 00:15:04;;;;;;;8.13;3.67;;;18.70;99.90;;;;;;5015320;28;20227;-63
2021/07/27 00:17:30;;;;;;;5.63;3.30;;;18.60;99.90;;;;;;5014778;28;20265;-64
2021/07/27 00:19:56;;;;;;;4.17;3.60;;;18.70;99.90;;;;;;5014907;28;20263;-63
2021/07/27 00:22:22;;;;;;;3.93;3.53;;;18.80;99.90;;;;;;5014452;28;20186;-64
2021/07/27 00:24:49;;;;;;;4.13;3.40;;;18.90;99.90;;;;;;5014738;28;20179;-61
2021/07/27 00:27:15;;;;;;;5.60;3.40;;;19.00;99.90;;;;;;5014823;28;20648;-62
2021/07/27 00:29:40;;;;;;;6.27;3.80;;;19.00;99.90;;;;;;5014653;28;20173;-63
2021/07/27 00:32:07;;;;;;;3.67;3.37;;;19.10;99.90;;;;;;5014213;28;20208;-64
2021/07/27 00:34:32;;;;;;;5.47;3.80;;;19.10;99.90;;;;;;5015358;28;20192;-62
2021/07/27 00:36:58;;;;;;;4.33;3.93;;;19.00;99.90;;;;;;5014565;28;20242;-64
2021/07/27 00:39:24;;;;;;;3.90;3.60;;;19.00;99.90;;;;;;4996339;28;20593;-62
2021/07/27 00:41:49;;;;;;;6.07;3.93;;;18.90;99.90;;;;;;4994883;28;20504;-63
2021/07/27 00:44:15;;;;;;;5.33;3.67;;;18.90;99.90;;;;;;4994657;28;20197;-63
2021/07/27 00:46:40;;;;;;;4.57;4.13;;;18.90;99.90;;;;;;4994994;28;20629;-63
2021/07/27 00:49:06;;;;;;;4.93;3.57;;;18.90;99.90;;;;;;4994930;28;20614;-62
2021/07/27 00:51:31;;;;;;;4.43;3.70;;;19.00;99.90;;;;;;4995073;28;20197;-63
2021/07/27 00:53:58;;;;;;;6.97;3.90;;;18.90;99.90;;;;;;4994495;28;20208;-62
2021/07/27 00:56:25;;;;;;;4.00;3.60;;;18.90;99.90;;;;;;4994892;28;20171;-64
2021/07/27 00:58:51;;;;;;;6.90;3.87;;;19.00;99.90;;;;;;4994973;28;20170;-61
2021/07/27 01:01:16;;;;;;;4.80;3.80;;;19.00;99.90;;;;;;4994050;28;20239;-63
2021/07/27 01:03:42;;;;;;;4.20;3.80;;;19.00;99.90;;;;;;4994606;28;20292;-61
2021/07/27 01:06:08;;;;;;;4.70;3.93;;;19.00;99.90;;;;;;4994506;28;20304;-61
2021/07/27 01:08:36;;;;;;;4.27;3.87;;;19.00;99.90;;;;;;4994252;28;20675;-62
2021/07/27 01:11:01;;;;;;;5.27;3.90;;;19.00;99.90;;;;;;4994836;28;20204;-64
2021/07/27 01:13:27;;;;;;;4.00;3.60;;;19.00;99.90;;;;;;4994155;28;20212;-62
2021/07/27 01:15:54;;;;;;;4.63;4.23;;;19.10;99.90;;;;;;4994582;28;20252;-62
2021/07/27 01:18:24;;;;;;;8.57;5.00;;;19.10;99.90;;;;;;4994465;28;20173;-62
2021/07/27 01:37:21;;;;;;;5.17;4.67;;;19.20;99.90;;;;;;4994125;28;20195;-64
2021/07/27 01:37:41;;;;;;;6.70;5.83;;;19.20;99.90;;;;;;4994295;28;20152;-63
2021/07/27 01:40:07;;;;;;;5.60;5.00;;;19.10;99.90;;;;;;4994252;28;20197;-64
2021/07/27 01:42:39;;;;;;;6.63;5.10;;;19.10;99.90;;;;;;4994168;28;20536;-64
2021/07/27 01:45:11;;;;;;;6.30;5.43;;;19.10;99.90;;;;;;4994442;28;20162;-63
2021/07/27 01:47:37;;;;;;;8.20;7.37;;;19.00;99.90;;;;;;4994570;28;20172;-63
2021/07/27 01:50:03;;;;;;;10.63;8.47;;;19.00;99.90;;;;;;4994007;28;20177;-61
2021/07/27 01:52:28;;;;;;;8.23;7.40;;;19.00;99.90;;;;;;4994039;28;20258;-62
2021/07/27 01:54:56;;;;;;;7.97;7.17;;;19.00;99.90;;;;;;4994615;28;20172;-63
2021/07/27 01:57:23;;;;;;;7.80;7.00;;;19.00;99.90;;;;;;4994347;28;20173;-64
2021/07/27 01:59:58;;;;;;;8.83;7.60;;;19.00;99.90;;;;;;4994048;28;20212;-63
2021/07/27 02:02:24;;;;;;;7.23;6.53;;;19.00;99.90;;;;;;4993657;28;20703;-63
2021/07/27 02:04:49;;;;;;;6.87;5.80;;;19.00;99.90;;;;;;4993832;28;20180;-64
2021/07/27 02:07:15;;;;;;;6.70;6.10;;;19.00;99.90;;;;;;4993979;28;20222;-64
2021/07/27 02:09:43;;;;;;;7.50;6.70;;;19.00;99.90;;;;;;4994245;28;20238;-63
2021/07/27 02:12:17;;;;;;;7.30;6.60;;;19.00;99.90;;;;;;4993847;28;20243;-64
2021/07/27 02:15:06;;;;;;;7.47;6.77;;;18.90;99.90;;;;;;4996453;28;20240;-62
2021/07/27 02:17:35;;;;;;;7.77;6.93;;;19.00;99.90;;;;;;4997514;28;20173;-63
2021/07/27 02:20:05;;;;;;;8.33;6.90;;;18.90;99.90;;;;;;4997800;28;20264;-63
2021/07/27 02:22:32;;;;;;;7.90;6.70;;;19.00;99.90;;;;;;4997344;28;20175;-62
2021/07/27 02:24:57;;;;;;;8.83;7.20;;;19.00;99.90;;;;;;4997532;28;20177;-62
2021/07/27 02:27:27;;;;;;;7.50;6.33;;;18.90;99.90;;;;;;4997434;28;20179;-62
2021/07/27 02:29:52;;;;;;;7.27;6.57;;;18.90;99.90;;;;;;4997136;28;20196;-62
2021/07/27 02:32:18;;;;;;;8.63;7.33;;;18.90;99.90;;;;;;4997029;28;20188;-62
2021/07/27 02:34:43;;;;;;;7.93;7.13;;;18.90;99.90;;;;;;4997384;28;20172;-62
2021/07/27 02:37:09;;;;;;;9.63;7.93;;;18.90;99.90;;;;;;4997584;28;20319;-61
2021/07/27 02:39:34;;;;;;;9.90;8.90;;;19.10;99.90;;;;;;4997406;28;20529;-61
2021/07/27 02:42:00;;;;;;;9.53;8.57;;;18.90;99.90;;;;;;4996926;28;20609;-64
2021/07/27 02:44:25;;;;;;;9.30;8.40;;;18.90;99.90;;;;;;4997171;28;20193;-64
2021/07/27 02:46:51;;;;;;;9.50;7.87;;;18.90;99.90;;;;;;4997273;28;20176;-62
2021/07/27 02:49:17;;;;;;;8.33;6.80;;;18.90;99.90;;;;;;4996024;28;20180;-63
2021/07/27 02:51:49;;;;;;;6.63;5.97;;;18.80;99.90;;;;;;4996541;28;20231;-63
2021/07/27 02:54:15;;;;;;;8.47;7.57;;;18.80;99.90;;;;;;4997003;28;20194;-63
2021/07/27 02:56:41;;;;;;;8.93;8.03;;;18.80;99.90;;;;;;4997154;28;20532;-62
2021/07/27 02:59:06;;;;;;;10.67;8.23;;;18.80;99.90;;;;;;4997145;28;20170;-63
2021/07/27 03:01:32;;;;;;;10.60;9.50;;;18.90;99.90;;;;;;4996420;28;20560;-61
2021/07/27 03:03:57;;;;;;;12.93;9.73;;;18.90;99.90;;;;;;4996713;28;20211;-64
2021/07/27 03:06:23;;;;;;;11.27;10.17;;;18.90;99.90;;;;;;4996705;28;20592;-60
2021/07/27 03:09:03;;;;;;;10.77;9.67;;;18.90;99.90;;;;;;4996565;28;20247;-61
2021/07/27 03:11:32;;;;;;;11.10;9.30;;;18.90;99.90;;;;;;4996697;28;20197;-64
2021/07/27 03:13:57;;;;;;;11.30;9.27;;;19.00;99.90;;;;;;4996479;28;20228;-62
2021/07/27 03:16:25;;;;;;;10.77;9.67;;;18.90;99.90;;;;;;4996869;28;20169;-63
2021/07/27 03:18:56;;;;;;;10.60;9.50;;;18.90;99.90;;;;;;4996210;28;20666;-64
2021/07/27 03:21:26;;;;;;;10.50;9.50;;;18.80;99.90;;;;;;4996628;28;20172;-64
2021/07/27 03:23:53;;;;;;;14.97;12.20;;;18.90;99.90;;;;;;4995916;28;20209;-63
2021/07/27 03:26:20;;;;;;;14.77;13.27;;;18.80;99.90;;;;;;4995903;28;20180;-63
2021/07/27 03:28:45;;;;;;;11.53;10.30;;;18.60;99.90;;;;;;4996487;28;20191;-61
2021/07/27 03:31:11;;;;;;;10.80;9.63;;;18.60;99.90;;;;;;4995753;28;20223;-61
2021/07/27 03:33:37;;;;;;;9.83;8.50;;;18.60;99.90;;;;;;4996201;28;20196;-64
2021/07/27 03:36:03;;;;;;;11.37;10.27;;;18.60;99.90;;;;;;4996097;28;20180;-62
2021/07/27 03:38:28;;;;;;;9.37;8.47;;;18.60;99.90;;;;;;4995963;28;20208;-63
2021/07/27 03:41:05;;;;;;;11.60;10.50;;;18.60;99.90;;;;;;4996491;28;20202;-64
2021/07/27 03:43:30;;;;;;;11.27;10.17;;;18.60;99.90;;;;;;4995879;28;20191;-64
2021/07/27 03:45:56;;;;;;;9.77;8.77;;;18.60;99.90;;;;;;4996263;28;20229;-64
2021/07/27 03:48:22;;;;;;;10.50;9.50;;;18.70;99.90;;;;;;4996136;28;20262;-62
2021/07/27 03:50:47;;;;;;;11.00;9.67;;;18.70;99.90;;;;;;4995552;28;20215;-62
2021/07/27 03:53:16;;;;;;;10.93;9.47;;;18.70;99.90;;;;;;4995504;28;20197;-62
2021/07/27 03:55:42;;;;;;;11.23;10.13;;;18.70;99.90;;;;;;4995644;28;20176;-62
2021/07/27 03:58:07;;;;;;;12.37;11.17;;;18.70;99.90;;;;;;4995821;28;20182;-64
2021/07/27 04:00:33;;;;;;;10.53;9.20;;;18.70;99.90;;;;;;4995673;28;20177;-63
2021/07/27 04:03:02;;;;;;;9.80;8.80;;;18.70;99.90;;;;;;4995295;28;20207;-64
2021/07/27 04:05:28;;;;;;;9.63;8.63;;;18.70;99.90;;;;;;4995529;28;20185;-63
2021/07/27 04:07:53;;;;;;;8.50;7.70;;;18.70;99.90;;;;;;4995436;28;20191;-63
2021/07/27 04:10:19;;;;;;;9.90;8.93;;;18.60;99.90;;;;;;4995652;28;20192;-63
2021/07/27 04:12:44;;;;;;;10.60;9.50;;;18.60;99.90;;;;;;4995087;28;20193;-64
2021/07/27 04:15:10;;;;;;;10.87;9.73;;;18.70;99.90;;;;;;4996091;28;20196;-61
2021/07/27 04:17:36;;;;;;;10.23;9.23;;;18.60;99.90;;;;;;4995291;28;20176;-61
2021/07/27 04:20:01;;;;;;;14.20;10.17;;;18.70;99.90;;;;;;4996017;28;20204;-61
2021/07/27 04:22:27;;;;;;;12.33;10.10;;;18.70;99.90;;;;;;4994822;28;20545;-61
2021/07/27 04:24:52;;;;;;;9.67;8.73;;;18.70;99.90;;;;;;4995273;28;20176;-63
2021/07/27 04:27:24;;;;;;;10.20;9.20;;;18.80;99.90;;;;;;4995509;28;20274;-64
2021/07/27 04:29:51;;;;;;;10.37;9.37;;;18.80;99.90;;;;;;4995763;28;20184;-61
2021/07/27 04:32:16;;;;;;;10.00;9.10;;;18.80;99.90;;;;;;4994758;28;20239;-63
2021/07/27 04:34:42;;;;;;;10.20;9.20;;;18.60;99.90;;;;;;4995633;28;20170;-63
2021/07/27 04:37:08;;;;;;;11.53;9.73;;;18.60;99.90;;;;;;4994327;28;20232;-62
2021/07/27 04:39:34;;;;;;;9.93;9.03;;;18.70;99.90;;;;;;4994889;28;20280;-62
2021/07/27 04:42:00;;;;;;;10.20;9.10;;;18.80;99.90;;;;;;4994961;28;20572;-62
2021/07/27 04:44:27;;;;;;;10.37;8.90;;;18.90;99.90;;;;;;4994673;28;20291;-62
2021/07/27 04:46:53;;;;;;;8.90;8.00;;;19.00;99.90;;;;;;4993000;28;20173;-63
2021/07/27 04:49:19;;;;;;;8.97;8.07;;;19.10;99.90;;;;;;4998683;28;20181;-65
2021/07/27 04:51:44;;;;;;;8.33;7.53;;;19.10;99.90;;;;;;4995103;28;20227;-63
2021/07/27 04:54:15;;;;;;;7.77;7.07;;;19.10;99.90;;;;;;4993345;28;20204;-62
2021/07/27 04:56:41;;;;;;;7.83;7.00;;;19.00;99.90;;;;;;4996606;28;20173;-63
2021/07/27 04:59:07;;;;;;;8.57;6.40;;;19.10;99.90;;;;;;5002759;28;20199;-64
2021/07/27 05:01:32;;;;;;;7.30;6.60;;;19.20;99.90;;;;;;5003794;28;20173;-63
2021/07/27 05:03:58;;;;;;;5.63;5.13;;;19.20;99.90;;;;;;5001479;28;20204;-63
2021/07/27 05:06:24;;;;;;;5.40;4.90;;;19.40;99.90;;;;;;4998766;28;20177;-63
2021/07/27 05:08:50;;;;;;;6.23;5.63;;;19.50;99.90;;;;;;5002414;28;20193;-64
2021/07/27 05:11:15;;;;;;;6.87;6.27;;;19.30;99.90;;;;;;4997017;28;20705;-64
2021/07/27 05:13:41;;;;;;;7.03;5.87;;;19.30;99.90;;;;;;5001574;28;20204;-65
2021/07/27 05:16:07;;;;;;;7.20;6.50;;;19.30;99.90;;;;;;4994141;28;20169;-65
2021/07/27 05:18:32;;;;;;;8.33;6.87;;;19.30;99.90;;;;;;4992543;28;20586;-65
2021/07/27 05:20:58;;;;;;;7.13;6.40;;;19.30;99.90;;;;;;4993934;28;20197;-65
2021/07/27 05:23:32;;;;;;;6.50;5.90;;;19.60;99.90;;;;;;4993800;28;20226;-65
2021/07/27 05:25:58;;;;;;;6.90;6.20;;;19.80;99.90;;;;;;4994020;28;20641;-64
2021/07/27 05:28:27;;;;;;;7.37;6.67;;;20.00;99.90;;;;;;4994231;28;20687;-62
2021/07/27 05:30:52;;;;;;;7.17;6.47;;;20.00;99.90;;;;;;4994445;28;20193;-61
2021/07/27 05:33:18;;;;;;;6.27;5.77;;;20.20;99.90;;;;;;4993463;28;20232;-65
2021/07/27 05:35:43;;;;;;;6.20;5.60;;;20.30;99.90;;;;;;4992958;28;20658;-65
2021/07/27 05:38:09;;;;;;;6.40;5.80;;;20.40;99.90;;;;;;4993997;28;20199;-63
2021/07/27 05:40:34;;;;;;;6.00;5.50;;;20.60;99.90;;;;;;4993068;28;20173;-64
2021/07/27 05:43:00;;;;;;;6.33;5.63;;;20.70;99.90;;;;;;4993966;28;20225;-62
2021/07/27 05:45:26;;;;;;;6.67;5.97;;;20.70;99.90;;;;;;4994502;28;20240;-64
2021/07/27 05:47:52;;;;;;;6.80;6.17;;;20.70;99.90;;;;;;4994810;28;20177;-63
2021/07/27 05:50:19;;;;;;;8.73;6.97;;;20.70;99.90;;;;;;4998297;28;20173;-64
2021/07/27 05:52:45;;;;;;;7.33;6.60;;;20.60;99.90;;;;;;4998046;28;20285;-61
2021/07/27 05:55:11;;;;;;;7.70;6.47;;;20.60;99.90;;;;;;4998513;28;20260;-64
2021/07/27 05:57:36;;;;;;;7.10;6.50;;;20.50;99.90;;;;;;4985969;28;20209;-64
2021/07/27 06:00:03;;;;;;;6.60;6.00;;;20.60;99.90;;;;;;4993041;28;20181;-62
2021/07/27 06:02:29;;;;;;;8.00;7.20;;;20.70;99.90;;;;;;4997578;28;20177;-64
2021/07/27 06:04:54;;;;;;;8.00;6.93;;;20.60;99.90;;;;;;4998080;28;20244;-62
2021/07/27 06:07:20;;;;;;;7.63;7.03;;;20.60;99.90;;;;;;4997855;28;20180;-64
2021/07/27 06:09:45;;;;;;;7.87;7.10;;;20.60;99.90;;;;;;4997864;28;20667;-63
2021/07/27 06:12:12;;;;;;;7.83;7.03;;;20.60;99.90;;;;;;4997351;28;20256;-60
2021/07/27 06:14:38;;;;;;;7.90;7.20;;;20.60;99.90;;;;;;5014970;28;20204;-65
2021/07/27 06:17:03;;;;;;;6.10;5.60;;;20.50;99.90;;;;;;4988455;28;20189;-65
2021/07/27 06:19:29;;;;;;;6.27;5.67;;;20.70;99.90;;;;;;4984992;28;20190;-65
2021/07/27 06:21:54;;;;;;;18.70;6.70;;;20.70;99.90;;;;;;4984725;28;20182;-65
2021/07/27 06:24:20;;;;;;;15.33;6.93;;;20.60;99.90;;;;;;4997988;28;20190;-63
2021/07/27 06:26:46;;;;;;;6.23;5.70;;;20.30;99.90;;;;;;4997338;28;20188;-64
2021/07/27 06:29:11;;;;;;;7.10;6.20;;;20.10;99.90;;;;;;4998157;28;20522;-62
2021/07/27 06:31:37;;;;;;;6.00;5.50;;;20.10;99.90;;;;;;4997160;28;20213;-63
2021/07/27 06:34:03;;;;;;;5.30;4.90;;;20.10;99.90;;;;;;4998017;28;20216;-64
2021/07/27 06:36:29;;;;;;;5.20;4.80;;;20.20;99.90;;;;;;5016602;28;20164;-63
2021/07/27 06:38:55;;;;;;;5.60;5.10;;;20.40;99.90;;;;;;4984128;28;20527;-63
2021/07/27 06:41:20;;;;;;;6.77;6.17;;;20.60;99.90;;;;;;4981749;28;20190;-63
2021/07/27 06:43:46;;;;;;;7.53;6.83;;;20.70;99.90;;;;;;4992811;28;20204;-60
2021/07/27 06:46:12;;;;;;;8.60;7.80;;;20.50;99.90;;;;;;4997176;28;20183;-61
2021/07/27 06:48:37;;;;;;;7.43;6.63;;;20.40;99.90;;;;;;4997237;28;20180;-61
2021/07/27 06:51:13;;;;;;;9.57;6.93;;;20.30;99.90;;;;;;4996593;28;20307;-63
2021/07/27 06:53:40;;;;;;;8.27;7.50;;;20.40;99.90;;;;;;4997093;28;20185;-63
2021/07/27 06:56:09;;;;;;;8.40;7.60;;;20.50;99.90;;;;;;4996790;28;20169;-63
2021/07/27 06:58:38;;;;;;;7.70;7.10;;;20.40;99.90;;;;;;4997612;28;20173;-60
2021/07/27 07:01:06;;;;;;;7.47;6.80;;;20.60;99.90;;;;;;4996441;28;20173;-63
2021/07/27 07:03:32;;;;;;;8.63;7.80;;;20.70;99.90;;;;;;4995671;28;20205;-63
2021/07/27 07:05:58;;;;;;;7.70;7.00;;;20.90;99.90;;;;;;4997261;28;20173;-59
2021/07/27 07:08:24;;;;;;;7.33;6.63;;;21.10;99.90;;;;;;4996732;28;20193;-61
2021/07/27 07:11:00;;;;;;;7.13;6.53;;;21.30;99.90;;;;;;4996631;28;20189;-62
2021/07/27 07:13:26;;;;;;;8.20;6.93;;;21.60;99.90;;;;;;4997091;28;20196;-61
2021/07/27 07:15:53;;;;;;;7.82;7.03;;;21.80;99.90;;;;;;4996895;28;20228;-63
2021/07/27 07:18:19;;;;;;;8.40;6.20;;;22.10;99.90;;;;;;4996198;28;20194;-63
2021/07/27 07:20:45;;;;;;;8.13;5.80;;;22.20;99.90;;;;;;4997040;28;20171;-60
2021/07/27 07:23:11;;;;;;;7.07;6.35;;;22.30;99.90;;;;;;4996544;28;20270;-63
2021/07/27 07:25:39;;;;;;;6.85;6.15;;;22.30;99.90;;;;;;4996994;28;20226;-62
2021/07/27 07:28:05;;;;;;;7.00;6.30;;;22.40;99.90;;;;;;4996362;28;20183;-64
2021/07/27 07:30:31;;;;;;;7.75;6.95;;;22.40;99.90;;;;;;4996639;28;20542;-60
2021/07/27 07:32:57;;;;;;;6.97;6.35;;;22.00;99.90;;;;;;4995969;28;20687;-61
2021/07/27 07:35:23;;;;;;;7.70;7.00;;;21.90;99.90;;;;;;4996752;28;20598;-60
2021/07/27 07:37:49;;;;;;;6.55;5.95;;;22.00;99.90;;;;;;4996167;28;20170;-62
2021/07/27 07:40:15;;;;;;;6.60;5.95;;;22.30;99.90;;;;;;4996080;28;20200;-62
2021/07/27 07:42:40;;;;;;;7.10;6.50;;;22.50;99.90;;;;;;4996280;28;20645;-63
2021/07/27 07:45:06;;;;;;;7.82;6.20;;;22.60;99.90;;;;;;4996145;28;20176;-63
2021/07/27 07:47:32;;;;;;;7.57;6.78;;;22.70;99.90;;;;;;4996122;28;20212;-61
2021/07/27 07:49:59;;;;;;;5.90;5.35;;;22.70;99.90;;;;;;4995724;28;20185;-61
2021/07/27 07:52:25;;;;;;;8.98;5.90;;;22.60;99.90;;;;;;4995804;28;20677;-63
2021/07/27 07:54:50;;;;;;;6.32;5.72;;;22.30;99.90;;;;;;4995836;28;20176;-63
2021/07/27 07:57:16;;;;;;;6.75;6.15;;;22.40;99.90;;;;;;4996038;28;20180;-61
2021/07/27 07:59:42;;;;;;;7.32;6.63;;;22.30;99.90;;;;;;4995726;28;20181;-64
2021/07/27 08:02:07;;;;;;;7.25;6.55;;;22.20;99.90;;;;;;4995825;28;20169;-61
2021/07/27 08:04:33;;;;;;;6.85;6.15;;;22.10;99.90;;;;;;4995575;28;20209;-63
2021/07/27 08:06:58;;;;;;;6.13;5.63;;;22.00;99.90;;;;;;4996162;28;20177;-63
2021/07/27 08:09:24;;;;;;;6.30;5.70;;;22.20;99.90;;;;;;4995713;28;20189;-62
2021/07/27 08:11:50;;;;;;;6.28;5.68;;;22.60;99.90;;;;;;4995237;28;20213;-64
2021/07/27 08:14:16;;;;;;;9.23;6.95;;;22.80;99.90;;;;;;4995394;28;20220;-64
2021/07/27 08:16:41;;;;;;;7.07;6.38;;;23.00;99.90;;;;;;4995502;28;20189;-62
2021/07/27 08:19:07;;;;;;;8.38;6.65;;;23.00;99.90;;;;;;4995595;28;20544;-63
2021/07/27 08:21:32;;;;;;;6.75;6.15;;;23.00;99.90;;;;;;4995495;28;20198;-64
2021/07/27 08:23:58;;;;;;;7.18;6.38;;;22.80;99.90;;;;;;4995491;28;20204;-64
2021/07/27 08:26:23;;;;;;;6.55;5.95;;;22.80;99.90;;;;;;4995166;28;20177;-60
2021/07/27 08:28:49;;;;;;;5.95;5.35;;;22.80;99.90;;;;;;4995518;28;20203;-64
2021/07/27 08:31:15;;;;;;;5.72;5.13;;;22.90;99.90;;;;;;4995259;28;20199;-64
2021/07/27 08:33:41;;;;;;;5.93;5.40;;;22.90;99.90;;;;;;4995066;28;20776;-64
2021/07/27 08:36:08;;;;;;;6.20;5.60;;;23.00;99.90;;;;;;4995319;28;20188;-64
2021/07/27 08:38:36;;;;;;;4.60;4.20;;;23.10;99.90;;;;;;4996005;28;20488;-59
2021/07/27 08:41:04;;;;;;;5.43;4.40;;;23.10;99.90;;;;;;4995281;28;20189;-64
2021/07/27 08:43:30;;;;;;;5.03;4.53;;;23.20;99.90;;;;;;4994867;28;20594;-62
2021/07/27 08:45:55;;;;;;;4.38;3.97;;;23.30;99.90;;;;;;4995390;28;20173;-63
2021/07/27 08:48:22;;;;;;;4.18;3.80;;;23.60;99.90;;;;;;4994547;28;20228;-62
2021/07/27 08:50:48;;;;;;;4.40;4.00;;;23.60;99.90;;;;;;4994771;28;20280;-64
2021/07/27 08:53:14;;;;;;;4.25;3.88;;;23.70;99.90;;;;;;4994337;28;20209;-63
2021/07/27 08:55:39;;;;;;;4.38;4.03;;;23.70;99.90;;;;;;4995080;28;20653;-61
2021/07/27 08:58:05;;;;;;;4.70;3.78;;;23.60;99.90;;;;;;4994792;28;20177;-60
2021/07/27 09:00:31;;;;;;;3.25;3.05;;;23.50;99.90;;;;;;4994679;28;20178;-61
2021/07/27 09:03:11;;;;;;;6.30;3.88;;;23.50;99.90;;;;;;4994422;28;20209;-64
2021/07/27 09:05:37;;;;;;;5.05;4.07;;;23.80;99.90;;;;;;4994926;28;20230;-61
2021/07/27 09:08:04;;;;;;;5.13;3.70;;;23.90;99.90;;;;;;4994744;28;20243;-62
2021/07/27 09:10:30;;;;;;;4.28;3.70;;;23.80;99.90;;;;;;4995071;28;20204;-63
2021/07/27 09:13:01;;;;;;;4.88;4.47;;;24.00;99.90;;;;;;4995401;28;20201;-62
2021/07/27 09:15:29;;;;;;;5.38;4.88;;;24.00;99.90;;;;;;4994660;28;20557;-62
2021/07/27 09:18:00;;;;;;;4.28;3.88;;;24.10;99.90;;;;;;4994447;28;20170;-63
2021/07/27 09:20:30;;;;;;;4.38;3.97;;;24.10;99.90;;;;;;4994565;28;20191;-62
2021/07/27 09:22:57;;;;;;;4.63;4.22;;;24.20;99.90;;;;;;4993750;28;20193;-62
2021/07/27 09:25:28;;;;;;;5.20;4.70;;;24.40;99.90;;;;;;4994524;28;20185;-63
2021/07/27 09:28:10;;;;;;;4.78;4.28;;;24.40;99.90;;;;;;4995414;28;20205;-61
2021/07/27 09:30:37;;;;;;;4.50;4.10;;;24.40;99.90;;;;;;4994340;28;20720;-63
2021/07/27 09:33:07;;;;;;;4.25;3.85;;;24.40;99.90;;;;;;4993836;28;20611;-64
2021/07/27 09:35:34;;;;;;;4.65;3.97;;;24.50;99.90;;;;;;4994773;28;20177;-64
2021/07/27 09:38:08;;;;;;;4.85;3.70;;;24.70;99.90;;;;;;4994279;28;20169;-62
2021/07/27 09:40:58;;;;;;;4.10;3.78;;;24.80;99.90;;;;;;4994534;28;20252;-64
2021/07/27 09:43:26;;;;;;;4.15;3.75;;;24.70;99.90;;;;;;4993705;28;20215;-63
2021/07/27 09:45:57;;;;;;;4.15;3.75;;;24.70;99.90;;;;;;4994263;28;20526;-64
2021/07/27 09:48:23;;;;;;;3.90;3.50;;;24.60;99.90;;;;;;4994216;28;20189;-62
2021/07/27 09:50:51;;;;;;;3.80;3.50;;;24.60;99.90;;;;;;4994167;28;20197;-63
2021/07/27 09:53:17;;;;;;;3.72;3.40;;;24.60;99.90;;;;;;4994235;28;20280;-64
2021/07/27 09:55:43;;;;;;;5.00;4.00;;;24.50;99.90;;;;;;4994997;28;20166;-64
2021/07/27 09:58:09;;;;;;;3.70;3.40;;;24.60;99.90;;;;;;4994117;28;20189;-63
2021/07/27 10:00:43;;;;;;;3.65;3.35;;;24.70;99.90;;;;;;4994379;28;20212;-63
2021/07/27 10:03:12;;;;;;;4.30;3.90;;;25.10;99.90;;;;;;4994453;28;20204;-61
2021/07/27 10:05:38;;;;;;;4.40;4.00;;;25.30;99.90;;;;;;4994328;28;20181;-63
2021/07/27 10:08:04;;;;;;;3.70;3.40;;;25.30;99.90;;;;;;4994522;28;20188;-61
2021/07/27 10:10:35;;;;;;;3.67;3.38;;;25.30;99.90;;;;;;4993731;28;20265;-63
2021/07/27 10:13:08;;;;;;;4.03;3.53;;;25.50;99.90;;;;;;4993858;28;20200;-62
2021/07/27 10:15:44;;;;;;;3.15;2.95;;;25.70;99.90;;;;;;4994639;28;20252;-61
2021/07/27 10:18:12;;;;;;;3.85;3.55;;;25.90;99.90;;;;;;4995067;28;20176;-62
2021/07/27 10:20:37;;;;;;;4.20;3.40;;;25.90;99.90;;;;;;4994126;28;20660;-63
2021/07/27 10:23:20;;;;;;;3.28;3.03;;;26.00;99.90;;;;;;4993693;28;20209;-61
2021/07/27 10:25:56;;;;;;;3.72;3.42;;;26.10;99.90;;;;;;4994111;28;20177;-61
2021/07/27 10:28:24;;;;;;;3.60;3.30;;;26.20;99.90;;;;;;4994344;28;20183;-62
2021/07/27 10:31:04;;;;;;;4.25;2.97;;;26.20;99.90;;;;;;4993703;28;20265;-61
2021/07/27 10:33:30;;;;;;;2.88;2.67;;;26.50;99.90;;;;;;4993427;28;20295;-63
2021/07/27 10:35:56;;;;;;;3.20;2.90;;;26.60;99.90;;;;;;4996289;28;20220;-62
2021/07/27 10:38:22;;;;;;;4.05;3.75;;;26.70;99.90;;;;;;4997145;28;20185;-63
2021/07/27 10:40:50;;;;;;;4.43;3.92;;;26.50;99.90;;;;;;4997303;28;20177;-63
2021/07/27 10:43:26;;;;;;;3.63;3.33;;;26.60;99.90;;;;;;4996741;28;20209;-63
2021/07/27 10:46:01;;;;;;;6.07;4.15;;;26.60;99.90;;;;;;4997485;28;20212;-62
2021/07/27 10:48:34;;;;;;;4.10;3.10;;;26.90;99.90;;;;;;4997113;28;20181;-62
2021/07/27 10:51:00;;;;;;;3.58;3.28;;;27.00;99.90;;;;;;4997076;28;20197;-63
2021/07/27 10:53:31;;;;;;;3.58;3.28;;;26.80;99.90;;;;;;4997051;28;20635;-63
2021/07/27 10:56:02;;;;;;;4.70;4.05;;;27.00;99.90;;;;;;4996997;28;20181;-61
2021/07/27 10:58:29;;;;;;;3.05;2.78;;;26.90;99.90;;;;;;4996914;28;20194;-62
2021/07/27 11:00:54;;;;;;;3.40;3.10;;;27.10;99.90;;;;;;4997126;28;20184;-61
2021/07/27 11:03:27;;;;;;;3.35;3.05;;;27.20;99.90;;;;;;4996423;28;20186;-63
2021/07/27 11:06:00;;;;;;;3.40;3.10;;;27.30;99.90;;;;;;4996945;28;20565;-64
2021/07/27 11:08:25;;;;;;;3.05;2.80;;;27.50;99.90;;;;;;4996664;28;20219;-65
2021/07/27 11:11:08;;;;;;;2.67;2.47;;;27.90;99.90;;;;;;4996499;28;20249;-62
2021/07/27 11:13:36;;;;;;;2.80;2.60;;;27.90;99.90;;;;;;4996616;28;20657;-63
2021/07/27 11:16:01;;;;;;;2.63;2.42;;;27.80;99.90;;;;;;4997029;28;20200;-62
2021/07/27 11:18:30;;;;;;;2.88;2.67;;;27.70;99.90;;;;;;4996580;28;20661;-64
2021/07/27 11:21:00;;;;;;;2.70;2.50;;;28.10;99.90;;;;;;4996243;28;20189;-64
2021/07/27 11:23:32;;;;;;;2.88;2.50;;;28.40;99.90;;;;;;4996441;28;20618;-64
2021/07/27 11:25:58;;;;;;;2.92;2.72;;;28.70;99.90;;;;;;4996704;28;20232;-64
2021/07/27 11:28:39;;;;;;;3.00;2.70;;;28.90;99.90;;;;;;4996547;28;20565;-64
2021/07/27 11:31:20;;;;;;;2.90;2.70;;;28.70;99.90;;;;;;4996015;28;20279;-64
2021/07/27 11:33:53;;;;;;;2.80;2.60;;;28.70;99.90;;;;;;4996365;28;20196;-63
2021/07/27 11:36:23;;;;;;;2.60;2.40;;;28.80;99.90;;;;;;4996345;28;20162;-64
2021/07/27 11:38:49;;;;;;;2.97;2.47;;;28.70;99.90;;;;;;4996646;28;20579;-63
2021/07/27 11:41:18;;;;;;;2.88;2.67;;;28.30;99.90;;;;;;4996193;28;20656;-65
2021/07/27 11:43:44;;;;;;;4.03;2.55;;;28.10;99.90;;;;;;4996329;28;20193;-64
2021/07/27 11:46:18;;;;;;;2.83;2.58;;;28.00;99.90;;;;;;4995674;28;20174;-64
2021/07/27 11:48:53;;;;;;;2.72;2.50;;;28.00;99.90;;;;;;4996144;28;20150;-63
2021/07/27 11:51:35;;;;;;;3.65;2.58;;;28.10;99.90;;;;;;4995501;28;20915;-64
2021/07/27 11:54:01;;;;;;;2.72;2.53;;;28.60;99.90;;;;;;4995850;28;20189;-65
2021/07/27 11:56:27;;;;;;;2.80;2.60;;;29.10;99.90;;;;;;4996063;28;20174;-64
2021/07/27 11:59:06;;;;;;;3.17;2.50;;;29.20;99.90;;;;;;4995782;28;20177;-64
2021/07/27 12:01:43;;;;;;;2.70;2.50;;;29.40;99.90;;;;;;4995928;28;20326;-63
2021/07/27 12:04:09;;;;;;;2.83;2.30;;;29.60;99.90;;;;;;4995436;28;20209;-63
2021/07/27 12:06:48;;;;;;;2.65;2.45;;;29.90;99.90;;;;;;4996222;28;20173;-64
2021/07/27 12:09:14;;;;;;;2.42;2.33;;;29.80;99.90;;;;;;4995192;28;20193;-63
2021/07/27 12:11:40;;;;;;;2.88;2.67;;;29.90;99.90;;;;;;4995536;28;20255;-64
2021/07/27 12:14:05;;;;;;;2.58;2.42;;;29.90;99.90;;;;;;4995002;28;20287;-65
2021/07/27 12:16:31;;;;;;;2.40;2.20;;;30.00;99.90;;;;;;4995600;28;20181;-65
2021/07/27 12:18:56;;;;;;;2.30;2.08;;;30.00;99.90;;;;;;4995331;28;20180;-65
2021/07/27 12:21:22;;;;;;;2.22;2.00;;;30.10;99.90;;;;;;4995721;28;20177;-65
2021/07/27 12:23:47;;;;;;;3.35;2.30;;;30.10;99.90;;;;;;4995391;28;20200;-63
2021/07/27 12:26:13;;;;;;;2.40;2.20;;;30.10;99.90;;;;;;4995466;28;20173;-64
2021/07/27 12:28:38;;;;;;;3.20;2.50;;;30.40;99.90;;;;;;4995857;28;20173;-65
2021/07/27 12:31:04;;;;;;;2.30;2.10;;;30.70;99.90;;;;;;4995361;28;20605;-64
2021/07/27 12:33:30;;;;;;;2.20;2.00;;;30.80;99.90;;;;;;4994677;28;20279;-64
2021/07/27 12:36:01;;;;;;;2.65;2.15;;;30.60;99.90;;;;;;4995465;28;20181;-64
2021/07/27 12:38:27;;;;;;;2.63;2.42;;;30.80;99.90;;;;;;4995128;28;20256;-62
2021/07/27 12:40:52;;;;;;;2.10;2.00;;;30.90;99.90;;;;;;4995437;28;20269;-65
2021/07/27 12:43:18;;;;;;;1.73;1.63;;;31.10;99.90;;;;;;4993914;28;20201;-65
2021/07/27 12:45:44;;;;;;;3.70;1.80;;;31.00;99.90;;;;;;4994988;28;20219;-65
2021/07/27 12:48:10;;;;;;;2.05;1.88;;;31.30;99.90;;;;;;4994655;28;20204;-64
2021/07/27 12:50:35;;;;;;;2.40;2.20;;;31.40;99.90;;;;;;4994896;28;20661;-65
2021/07/27 12:53:01;;;;;;;2.38;2.20;;;31.60;99.90;;;;;;4994625;28;20189;-64
2021/07/27 12:55:26;;;;;;;2.10;1.90;;;31.80;99.30;;;;;;4994897;28;20228;-64
2021/07/27 12:57:52;;;;;;;2.40;2.20;;;31.80;99.90;;;;;;4993963;28;20193;-63
2021/07/27 13:00:18;;;;;;;2.45;2.28;;;31.70;99.90;;;;;;4994359;28;20239;-63